createdAt,value
2023-05-18T00:02:27.388Z,8.10
2023-05-18T00:04:55.473Z,8.00
2023-05-18T00:07:23.607Z,7.90
2023-05-18T00:09:51.626Z,7.90
2023-05-18T00:12:19.645Z,7.80
2023-05-18T00:14:47.707Z,7.80
2023-05-18T00:17:17.072Z,7.80
2023-05-18T00:19:46.742Z,7.80
2023-05-18T00:22:18.094Z,7.70
2023-05-18T00:24:46.998Z,7.70
2023-05-18T00:27:15.540Z,7.60
2023-05-18T00:29:43.628Z,7.60
2023-05-18T00:32:16.714Z,7.60
2023-05-18T00:34:44.716Z,7.60
2023-05-18T00:37:12.678Z,7.60
2023-05-18T00:39:40.636Z,7.60
2023-05-18T00:42:08.725Z,7.60
2023-05-18T00:44:36.742Z,7.60
2023-05-18T00:47:05.045Z,7.60
2023-05-18T00:49:34.446Z,7.60
2023-05-18T00:52:03.747Z,7.60
2023-05-18T00:54:33.229Z,7.50
2023-05-18T00:57:02.312Z,7.40
2023-05-18T00:59:32.667Z,7.50
2023-05-18T01:02:01.582Z,7.50
2023-05-18T01:04:31.848Z,7.40
2023-05-18T01:07:06.575Z,7.50
2023-05-18T01:09:35.433Z,7.50
2023-05-18T01:12:11.981Z,7.50
2023-05-18T01:14:46.649Z,7.50
2023-05-18T01:17:24.386Z,7.40
2023-05-18T01:20:11.070Z,7.40
2023-05-18T01:22:51.781Z,7.40
2023-05-18T01:25:29.810Z,7.40
2023-05-18T01:28:06.040Z,7.40
2023-05-18T01:30:35.411Z,7.30
2023-05-18T01:33:08.418Z,7.30
2023-05-18T01:35:37.306Z,7.30
2023-05-18T01:38:05.682Z,7.20
2023-05-18T01:40:38.261Z,7.20
2023-05-18T01:43:12.719Z,7.20
2023-05-18T01:45:46.898Z,7.20
2023-05-18T01:48:19.647Z,7.30
2023-05-18T01:50:50.103Z,7.10
2023-05-18T01:53:25.467Z,7.10
2023-05-18T01:55:55.295Z,7.10
2023-05-18T01:58:25.366Z,7.10
2023-05-18T02:00:53.943Z,7.00
2023-05-18T02:03:22.495Z,7.00
2023-05-18T02:05:50.881Z,7.00
2023-05-18T02:08:18.985Z,7.00
2023-05-18T02:10:47.001Z,7.10
2023-05-18T02:13:14.996Z,7.10
2023-05-18T02:15:45.455Z,7.00
2023-05-18T02:18:14.080Z,7.00
2023-05-18T02:20:42.874Z,7.00
2023-05-18T02:23:11.037Z,6.90
2023-05-18T02:25:39.117Z,6.90
2023-05-18T02:28:07.114Z,6.80
2023-05-18T02:30:35.283Z,6.80
2023-05-18T02:33:04.867Z,6.70
2023-05-18T02:35:33.017Z,6.70
2023-05-18T02:38:02.672Z,6.80
2023-05-18T02:40:31.127Z,6.80
2023-05-18T02:42:59.130Z,6.70
2023-05-18T02:45:27.267Z,6.70
2023-05-18T02:47:56.768Z,6.70
2023-05-18T02:50:26.267Z,6.60
2023-05-18T02:52:55.830Z,6.60
2023-05-18T02:55:23.915Z,6.60
2023-05-18T02:58:08.494Z,6.50
2023-05-18T03:01:00.902Z,6.50
2023-05-18T03:03:35.326Z,6.50
2023-05-18T03:06:05.920Z,6.40
2023-05-18T03:08:33.954Z,6.40
2023-05-18T03:11:02.058Z,6.50
2023-05-18T03:13:30.793Z,6.40
2023-05-18T03:15:58.859Z,6.40
2023-05-18T03:18:26.989Z,6.40
2023-05-18T03:20:56.222Z,6.40
2023-05-18T03:23:27.022Z,6.40
2023-05-18T03:25:55.496Z,6.40
2023-05-18T03:28:26.982Z,6.30
2023-05-18T03:30:55.648Z,6.40
2023-05-18T03:33:23.886Z,6.30
2023-05-18T03:35:52.317Z,6.30
2023-05-18T03:38:20.643Z,6.40
2023-05-18T03:40:56.978Z,6.30
2023-05-18T03:43:25.780Z,6.30
2023-05-18T03:45:54.900Z,6.40
2023-05-18T03:48:23.536Z,6.40
2023-05-18T03:50:51.707Z,6.40
2023-05-18T03:53:21.577Z,6.40
2023-05-18T03:55:51.569Z,6.40
2023-05-18T03:58:21.102Z,6.40
2023-05-18T04:00:49.523Z,6.40
2023-05-18T04:03:18.009Z,6.50
2023-05-18T04:05:46.126Z,6.60
2023-05-18T04:08:14.769Z,6.60
2023-05-18T04:10:43.822Z,6.60
2023-05-18T04:13:12.405Z,6.70
2023-05-18T04:15:41.794Z,6.70
2023-05-18T04:18:10.358Z,6.80
2023-05-18T04:20:39.020Z,6.90
2023-05-18T04:23:09.661Z,7.00
2023-05-18T04:25:39.404Z,7.10
2023-05-18T04:28:08.296Z,7.10
2023-05-18T04:30:37.613Z,7.30
2023-05-18T04:33:08.396Z,7.30
2023-05-18T04:35:36.558Z,7.40
2023-05-18T04:38:05.254Z,7.60
2023-05-18T04:40:34.458Z,7.90
2023-05-18T04:43:04.233Z,8.00
2023-05-18T04:45:34.261Z,8.50
2023-05-18T04:48:02.915Z,9.10
2023-05-18T04:50:32.328Z,9.80
2023-05-18T04:53:02.247Z,9.90
2023-05-18T04:55:31.371Z,9.90
2023-05-18T04:58:05.010Z,9.70
2023-05-18T05:00:33.268Z,9.30
2023-05-18T05:03:01.502Z,9.20
2023-05-18T05:05:30.606Z,9.40
2023-05-18T05:08:00.253Z,10.10
2023-05-18T05:10:29.059Z,10.80
2023-05-18T05:12:57.129Z,11.10
2023-05-18T05:15:25.766Z,11.30
2023-05-18T05:17:55.200Z,11.60
2023-05-18T05:20:23.651Z,12.20
2023-05-18T05:22:51.778Z,12.20
2023-05-18T05:25:25.995Z,11.60
2023-05-18T05:27:54.379Z,11.40
2023-05-18T05:30:23.270Z,11.20
2023-05-18T05:32:51.365Z,11.20
2023-05-18T05:35:19.713Z,11.40
2023-05-18T05:37:48.668Z,11.60
2023-05-18T05:40:17.616Z,11.50
2023-05-18T05:42:48.658Z,10.70
2023-05-18T05:45:16.691Z,10.70
2023-05-18T05:47:47.476Z,10.80
2023-05-18T05:50:17.714Z,10.60
2023-05-18T05:52:48.082Z,10.60
2023-05-18T05:55:16.997Z,10.60
2023-05-18T05:57:45.013Z,10.40
2023-05-18T06:00:15.376Z,10.10
2023-05-18T06:02:49.845Z,10.20
2023-05-18T06:05:25.927Z,10.60
2023-05-18T06:07:55.384Z,11.00
2023-05-18T06:10:23.461Z,11.20
2023-05-18T06:12:51.607Z,11.20
2023-05-18T06:15:22.349Z,11.20
2023-05-18T06:17:50.602Z,11.30
2023-05-18T06:20:18.769Z,11.40
2023-05-18T06:22:48.625Z,11.00
2023-05-18T06:25:39.209Z,10.90
2023-05-18T06:28:13.943Z,11.10
2023-05-18T06:30:47.039Z,11.30
2023-05-18T06:33:23.536Z,11.10
2023-05-18T06:35:51.727Z,10.90
2023-05-18T06:38:19.754Z,11.10
2023-05-18T06:40:48.096Z,11.30
2023-05-18T06:43:16.232Z,11.30
2023-05-18T06:45:50.663Z,11.50
2023-05-18T06:48:45.779Z,11.50
2023-05-18T06:51:16.152Z,11.50
2023-05-18T06:53:45.020Z,11.40
2023-05-18T06:56:13.341Z,11.40
2023-05-18T06:58:43.592Z,11.50
2023-05-18T07:01:14.017Z,11.50
2023-05-18T07:03:42.486Z,11.60
2023-05-18T07:06:10.735Z,11.70
2023-05-18T07:08:38.817Z,11.70
2023-05-18T07:11:06.998Z,12.00
2023-05-18T07:13:35.125Z,12.10
2023-05-18T07:16:03.259Z,12.20
2023-05-18T07:18:33.994Z,12.10
2023-05-18T07:21:02.082Z,12.20
2023-05-18T07:23:30.155Z,12.50
2023-05-18T07:25:58.520Z,12.40
2023-05-18T07:28:26.547Z,12.40
2023-05-18T07:30:54.564Z,12.40
2023-05-18T07:33:22.600Z,12.50
2023-05-18T07:35:51.916Z,12.30
2023-05-18T07:38:19.899Z,12.30
2023-05-18T07:40:48.901Z,12.30
2023-05-18T07:43:17.354Z,12.30
2023-05-18T07:45:45.377Z,12.50
2023-05-18T07:48:13.629Z,12.60
2023-05-18T07:50:41.682Z,12.60
2023-05-18T07:53:11.086Z,12.70
2023-05-18T07:55:39.086Z,12.70
2023-05-18T07:58:07.064Z,12.80
2023-05-18T08:00:35.334Z,12.80
2023-05-18T08:03:03.433Z,12.70
2023-05-18T08:05:31.853Z,12.80
2023-05-18T08:08:00.144Z,12.80
2023-05-18T08:10:29.585Z,13.00
2023-05-18T08:12:57.546Z,13.20
2023-05-18T08:15:25.680Z,13.30
2023-05-18T08:17:54.919Z,13.10
2023-05-18T08:20:23.334Z,13.20
2023-05-18T08:22:51.344Z,13.30
2023-05-18T08:25:19.305Z,13.30
2023-05-18T08:27:48.671Z,13.40
2023-05-18T08:30:20.582Z,13.40
2023-05-18T08:32:48.710Z,13.60
2023-05-18T08:35:17.518Z,13.70
2023-05-18T08:37:46.169Z,13.80
2023-05-18T08:40:14.733Z,13.80
2023-05-18T08:42:52.304Z,13.50
2023-05-18T08:45:25.997Z,13.70
2023-05-18T08:47:57.712Z,13.80
2023-05-18T08:50:27.511Z,14.10
2023-05-18T08:52:59.968Z,14.00
2023-05-18T08:55:29.442Z,14.00
2023-05-18T08:58:02.121Z,14.10
2023-05-18T09:00:30.736Z,14.20
2023-05-18T09:02:59.938Z,14.20
2023-05-18T09:05:28.599Z,13.80
2023-05-18T09:07:57.693Z,14.10
2023-05-18T09:10:26.166Z,14.40
2023-05-18T09:12:57.055Z,14.70
2023-05-18T09:15:27.956Z,15.10
2023-05-18T09:17:56.049Z,15.80
2023-05-18T09:20:25.854Z,16.80
2023-05-18T09:22:54.398Z,18.10
2023-05-18T09:25:22.660Z,18.70
2023-05-18T09:27:52.972Z,18.40
2023-05-18T09:30:21.110Z,19.10
2023-05-18T09:32:51.001Z,19.60
2023-05-18T09:35:19.036Z,19.70
2023-05-18T09:37:47.089Z,19.70
2023-05-18T09:40:16.596Z,20.60
2023-05-18T09:42:46.145Z,21.30
2023-05-18T09:45:19.367Z,21.40
2023-05-18T09:47:47.895Z,20.00
2023-05-18T09:50:20.146Z,19.40
2023-05-18T09:52:49.244Z,18.80
2023-05-18T09:55:18.342Z,18.40
2023-05-18T09:57:47.583Z,19.20
2023-05-18T10:00:16.992Z,19.40
2023-05-18T10:02:48.800Z,20.10
2023-05-18T10:05:22.034Z,20.10
2023-05-18T10:07:51.564Z,20.40
2023-05-18T10:10:20.734Z,21.00
2023-05-18T10:12:49.306Z,20.30
2023-05-18T10:15:19.650Z,20.40
2023-05-18T10:17:48.882Z,20.40
2023-05-18T10:20:19.160Z,20.30
2023-05-18T10:22:49.760Z,20.40
2023-05-18T10:25:20.341Z,21.60
2023-05-18T10:27:50.785Z,21.30
2023-05-18T10:30:19.004Z,20.90
2023-05-18T10:32:47.339Z,20.80
2023-05-18T10:35:15.856Z,21.30
2023-05-18T10:37:48.350Z,20.90
2023-05-18T10:40:19.032Z,19.70
2023-05-18T10:42:47.914Z,19.40
2023-05-18T10:45:16.693Z,20.10
2023-05-18T10:47:45.636Z,20.40
2023-05-18T10:50:15.125Z,19.90
2023-05-18T10:52:45.798Z,21.10
2023-05-18T10:55:14.100Z,21.00
2023-05-18T10:57:49.066Z,21.20
2023-05-18T11:00:17.633Z,21.10
2023-05-18T11:02:46.215Z,21.60
2023-05-18T11:05:14.451Z,21.80
2023-05-18T11:07:46.336Z,22.00
2023-05-18T11:10:15.570Z,22.30
2023-05-18T11:12:46.071Z,21.90
2023-05-18T11:15:14.205Z,22.10
2023-05-18T11:17:42.297Z,21.80
2023-05-18T11:20:18.122Z,21.60
2023-05-18T11:22:51.350Z,21.70
2023-05-18T11:25:39.323Z,21.20
2023-05-18T11:28:10.215Z,20.80
2023-05-18T11:30:49.956Z,20.20
2023-05-18T11:33:23.451Z,20.00
2023-05-18T11:36:04.031Z,21.20
2023-05-18T11:38:53.639Z,20.70
2023-05-18T11:41:32.660Z,21.10
2023-05-18T11:44:18.035Z,21.10
2023-05-18T11:47:05.889Z,21.20
2023-05-18T11:49:37.712Z,20.80
2023-05-18T11:52:08.419Z,21.00
2023-05-18T11:54:44.650Z,21.50
2023-05-18T11:57:13.772Z,21.50
2023-05-18T11:59:44.129Z,20.70
2023-05-18T12:02:14.042Z,21.30
2023-05-18T12:04:47.636Z,21.70
2023-05-18T12:07:15.957Z,21.70
2023-05-18T12:09:45.715Z,22.00
2023-05-18T12:12:17.090Z,21.80
2023-05-18T12:14:53.787Z,21.00
2023-05-18T12:17:22.121Z,21.00
2023-05-18T12:19:51.050Z,20.80
2023-05-18T12:22:19.092Z,20.60
2023-05-18T12:24:47.066Z,21.30
2023-05-18T12:27:15.098Z,21.40
2023-05-18T12:29:43.872Z,21.40
2023-05-18T12:32:14.235Z,21.40
2023-05-18T12:34:45.111Z,21.70
2023-05-18T12:37:13.176Z,21.20
2023-05-18T12:39:41.159Z,21.20
2023-05-18T12:42:13.020Z,21.00
2023-05-18T12:44:43.768Z,21.10
2023-05-18T12:47:14.397Z,20.80
2023-05-18T12:49:44.639Z,20.90
2023-05-18T12:52:14.266Z,21.10
2023-05-18T12:54:55.606Z,20.80
2023-05-18T12:57:27.290Z,20.60
2023-05-18T12:59:55.899Z,20.70
2023-05-18T13:02:36.816Z,20.40
2023-05-18T13:05:07.326Z,19.30
2023-05-18T13:07:40.678Z,19.10
2023-05-18T13:10:10.589Z,19.20
2023-05-18T13:12:43.886Z,19.30
2023-05-18T13:15:16.489Z,18.90
2023-05-18T13:17:59.144Z,19.00
2023-05-18T13:20:36.511Z,19.20
2023-05-18T13:23:07.027Z,19.30
2023-05-18T13:25:35.159Z,18.90
2023-05-18T13:28:03.660Z,18.70
2023-05-18T13:30:32.048Z,18.70
2023-05-18T13:33:02.036Z,18.80
2023-05-18T13:35:30.866Z,18.80
2023-05-18T13:37:59.056Z,19.00
2023-05-18T13:40:27.171Z,18.90
2023-05-18T13:42:55.332Z,18.80
2023-05-18T13:45:23.890Z,19.00
2023-05-18T13:47:53.641Z,19.00
2023-05-18T13:50:24.051Z,19.20
2023-05-18T13:52:52.468Z,19.40
2023-05-18T13:55:21.058Z,19.30
2023-05-18T13:57:49.265Z,19.20
2023-05-18T14:00:20.484Z,19.00
2023-05-18T14:02:49.039Z,19.10
2023-05-18T14:05:17.989Z,19.10
2023-05-18T14:07:47.688Z,19.00
2023-05-18T14:10:15.790Z,18.90
2023-05-18T14:12:43.835Z,19.10
2023-05-18T14:15:13.893Z,19.30
2023-05-18T14:17:42.535Z,19.00
2023-05-18T14:20:11.559Z,19.00
2023-05-18T14:22:39.748Z,19.00
2023-05-18T14:25:09.964Z,19.00
2023-05-18T14:27:38.190Z,19.30
2023-05-18T14:30:07.495Z,19.40
2023-05-18T14:32:35.683Z,19.00
2023-05-18T14:35:03.894Z,18.50
2023-05-18T14:37:32.937Z,18.30
2023-05-18T14:40:01.293Z,18.20
2023-05-18T14:42:30.958Z,18.10
2023-05-18T14:44:59.004Z,17.90
2023-05-18T14:47:27.235Z,18.00
2023-05-18T14:49:55.273Z,18.20
2023-05-18T14:52:23.425Z,18.40
2023-05-18T14:54:51.536Z,18.50
2023-05-18T14:57:19.637Z,18.60
2023-05-18T14:59:49.271Z,18.80
2023-05-18T15:02:18.213Z,18.70
2023-05-18T15:04:46.625Z,18.60
2023-05-18T15:07:14.601Z,18.40
2023-05-18T15:09:42.623Z,18.50
2023-05-18T15:12:10.864Z,18.40
2023-05-18T15:14:38.919Z,18.20
2023-05-18T15:17:08.636Z,18.20
2023-05-18T15:19:36.948Z,18.40
2023-05-18T15:22:05.230Z,18.60
2023-05-18T15:24:33.210Z,18.60
2023-05-18T15:27:03.447Z,18.80
2023-05-18T15:29:31.449Z,18.70
2023-05-18T15:31:59.534Z,18.60
2023-05-18T15:34:29.767Z,18.50
2023-05-18T15:36:57.899Z,18.50
2023-05-18T15:39:25.882Z,18.80
2023-05-18T15:41:53.868Z,18.60
2023-05-18T15:44:21.840Z,18.40
2023-05-18T15:46:49.892Z,18.20
2023-05-18T15:49:21.121Z,18.20
2023-05-18T15:51:50.619Z,18.10
2023-05-18T15:54:19.609Z,18.20
2023-05-18T15:56:48.140Z,18.10
2023-05-18T15:59:17.869Z,18.00
2023-05-18T16:01:46.287Z,17.70
2023-05-18T16:04:14.710Z,17.80
2023-05-18T16:06:42.713Z,17.90
2023-05-18T16:09:12.171Z,17.80
2023-05-18T16:11:40.203Z,17.80
2023-05-18T16:14:08.279Z,17.60
2023-05-18T16:16:36.371Z,17.80
2023-05-18T16:19:05.523Z,17.90
2023-05-18T16:21:33.761Z,17.90
2023-05-18T16:24:01.799Z,17.80
2023-05-18T16:26:31.457Z,17.70
2023-05-18T16:28:59.487Z,17.50
2023-05-18T16:31:27.615Z,17.50
2023-05-18T16:33:56.639Z,17.60
2023-05-18T16:36:26.138Z,17.60
2023-05-18T16:38:54.420Z,17.60
2023-05-18T16:41:22.430Z,17.60
2023-05-18T16:43:51.858Z,17.70
2023-05-18T16:46:20.007Z,17.60
2023-05-18T16:48:48.146Z,17.70
2023-05-18T16:51:16.153Z,17.60
2023-05-18T16:53:44.350Z,17.50
2023-05-18T16:56:12.349Z,17.60
2023-05-18T16:58:40.465Z,17.70
2023-05-18T17:01:19.370Z,17.60
2023-05-18T17:03:55.592Z,17.60
2023-05-18T17:06:23.701Z,17.20
2023-05-18T17:08:57.325Z,17.10
2023-05-18T17:11:26.693Z,17.10
2023-05-18T17:13:54.873Z,17.00
2023-05-18T17:16:26.502Z,16.90
2023-05-18T17:18:56.056Z,16.80
2023-05-18T17:21:26.615Z,16.70
2023-05-18T17:23:54.699Z,16.60
2023-05-18T17:26:24.988Z,16.50
2023-05-18T17:28:53.073Z,16.40
2023-05-18T17:31:21.343Z,16.40
2023-05-18T17:33:51.026Z,16.30
2023-05-18T17:36:19.276Z,16.30
2023-05-18T17:38:47.809Z,16.30
2023-05-18T17:41:16.036Z,16.30
2023-05-18T17:43:44.089Z,16.30
2023-05-18T17:46:12.105Z,16.30
2023-05-18T17:48:40.284Z,16.30
2023-05-18T17:51:09.703Z,16.30
2023-05-18T17:53:41.894Z,16.20
2023-05-18T17:56:10.835Z,16.20
2023-05-18T17:58:39.536Z,16.10
2023-05-18T18:01:08.580Z,16.10
2023-05-18T18:03:37.341Z,16.00
2023-05-18T18:06:05.926Z,16.00
2023-05-18T18:08:36.773Z,15.80
2023-05-18T18:11:05.906Z,15.80
2023-05-18T18:13:35.790Z,15.80
2023-05-18T18:16:04.216Z,15.70
2023-05-18T18:18:32.571Z,15.70
2023-05-18T18:21:00.751Z,15.70
2023-05-18T18:23:30.482Z,15.60
2023-05-18T18:26:00.125Z,15.60
2023-05-18T18:28:29.244Z,15.50
2023-05-18T18:30:57.391Z,15.50
2023-05-18T18:33:26.525Z,15.40
2023-05-18T18:35:55.922Z,15.40
2023-05-18T18:38:26.869Z,15.30
2023-05-18T18:40:57.694Z,15.30
2023-05-18T18:43:27.690Z,15.20
2023-05-18T18:45:57.064Z,15.10
2023-05-18T18:48:25.473Z,15.00
2023-05-18T18:50:53.645Z,15.00
2023-05-18T18:53:21.643Z,14.90
2023-05-18T18:55:49.968Z,14.90
2023-05-18T18:58:18.155Z,14.80
2023-05-18T19:00:47.527Z,14.80
2023-05-18T19:03:16.268Z,14.70
2023-05-18T19:05:44.373Z,14.60
2023-05-18T19:08:12.400Z,14.50
2023-05-18T19:11:00.471Z,14.40
2023-05-18T19:13:28.530Z,14.40
2023-05-18T19:15:58.109Z,14.30
2023-05-18T19:18:26.334Z,14.30
2023-05-18T19:20:54.332Z,14.10
2023-05-18T19:23:22.307Z,14.10
2023-05-18T19:25:50.431Z,14.00
2023-05-18T19:28:18.381Z,13.90
2023-05-18T19:30:47.584Z,13.80
2023-05-18T19:33:17.172Z,13.80
2023-05-18T19:35:45.509Z,13.70
2023-05-18T19:38:13.535Z,13.60
2023-05-18T19:40:41.526Z,13.60
2023-05-18T19:43:09.723Z,13.50
2023-05-18T19:45:37.925Z,13.40
2023-05-18T19:48:08.992Z,13.40
2023-05-18T19:50:38.387Z,13.40
2023-05-18T19:53:06.384Z,13.30
2023-05-18T19:55:34.559Z,13.20
2023-05-18T19:58:02.695Z,13.20
2023-05-18T20:00:30.979Z,13.10
2023-05-18T20:03:02.165Z,13.10
2023-05-18T20:05:30.321Z,13.00
2023-05-18T20:08:02.092Z,13.00
2023-05-18T20:10:30.274Z,12.90
2023-05-18T20:12:58.365Z,12.80
2023-05-18T20:15:28.068Z,12.70
2023-05-18T20:17:56.062Z,12.70
2023-05-18T20:20:24.108Z,12.60
2023-05-18T20:22:52.097Z,12.60
2023-05-18T20:25:21.399Z,12.50
2023-05-18T20:27:49.511Z,12.50
2023-05-18T20:30:17.492Z,12.50
2023-05-18T20:32:45.734Z,12.40
2023-05-18T20:35:15.770Z,12.40
2023-05-18T20:37:44.284Z,12.40
2023-05-18T20:40:13.431Z,12.30
2023-05-18T20:42:42.789Z,12.20
2023-05-18T20:45:12.377Z,12.20
2023-05-18T20:47:41.667Z,12.10
2023-05-18T20:50:10.846Z,12.00
2023-05-18T20:52:38.802Z,12.00
2023-05-18T20:55:07.372Z,12.00
2023-05-18T20:57:38.296Z,12.00
2023-05-18T21:00:09.230Z,11.90
2023-05-18T21:02:37.779Z,11.90
2023-05-18T21:05:06.534Z,11.90
2023-05-18T21:07:37.680Z,11.80
2023-05-18T21:10:06.434Z,11.80
2023-05-18T21:12:34.486Z,11.70
2023-05-18T21:15:02.612Z,11.70
2023-05-18T21:17:32.436Z,11.60
2023-05-18T21:20:00.581Z,11.70
2023-05-18T21:22:28.931Z,11.60
2023-05-18T21:24:56.979Z,11.60
2023-05-18T21:27:24.976Z,11.60
2023-05-18T21:29:52.988Z,11.60
2023-05-18T21:32:21.054Z,11.60
2023-05-18T21:34:50.577Z,11.50
2023-05-18T21:37:18.570Z,11.50
2023-05-18T21:39:46.777Z,11.50
2023-05-18T21:42:14.827Z,11.50
2023-05-18T21:44:45.593Z,11.40
2023-05-18T21:47:13.630Z,11.40
2023-05-18T21:49:41.684Z,11.40
2023-05-18T21:52:11.037Z,11.30
2023-05-18T21:54:39.394Z,11.30
2023-05-18T21:57:07.481Z,11.20
2023-05-18T21:59:35.594Z,11.20
2023-05-18T22:02:03.632Z,11.20
2023-05-18T22:04:31.957Z,11.20
2023-05-18T22:07:00.703Z,11.10
2023-05-18T22:09:30.356Z,11.10
2023-05-18T22:11:58.756Z,11.10
2023-05-18T22:14:26.755Z,11.00
2023-05-18T22:16:54.901Z,11.00
2023-05-18T22:19:22.983Z,10.90
2023-05-18T22:21:51.089Z,10.80
2023-05-18T22:24:19.048Z,10.80
2023-05-18T22:26:48.432Z,10.80
2023-05-18T22:29:16.407Z,10.80
2023-05-18T22:31:44.455Z,10.80
2023-05-18T22:34:12.452Z,10.80
2023-05-18T22:36:40.543Z,10.70
2023-05-18T22:39:09.524Z,10.70
2023-05-18T22:41:37.546Z,10.70
2023-05-18T22:44:06.983Z,10.70
2023-05-18T22:46:35.160Z,10.70
2023-05-18T22:49:03.220Z,10.50
2023-05-18T22:51:33.898Z,10.50
2023-05-18T22:54:01.896Z,10.40
2023-05-18T22:56:29.934Z,10.50
2023-05-18T22:58:57.974Z,10.40
2023-05-18T23:01:27.318Z,10.40
2023-05-18T23:03:56.694Z,10.40
2023-05-18T23:06:26.084Z,10.30
2023-05-18T23:08:55.180Z,10.30
2023-05-18T23:11:23.248Z,10.30
2023-05-18T23:13:51.584Z,10.30
2023-05-18T23:16:20.555Z,10.30
2023-05-18T23:18:50.611Z,10.20
2023-05-18T23:21:18.694Z,10.20
2023-05-18T23:23:46.712Z,10.20
2023-05-18T23:26:14.724Z,10.10
2023-05-18T23:28:42.737Z,10.20
2023-05-18T23:31:10.755Z,10.10
2023-05-18T23:33:39.331Z,10.10
2023-05-18T23:36:10.051Z,10.00
2023-05-18T23:38:40.891Z,10.00
2023-05-18T23:41:09.487Z,10.00
2023-05-18T23:43:38.155Z,10.00
2023-05-18T23:46:07.492Z,10.00
2023-05-18T23:48:36.265Z,10.00
2023-05-18T23:51:04.828Z,9.90
2023-05-18T23:53:34.705Z,9.90
2023-05-18T23:56:03.752Z,9.90
2023-05-18T23:58:32.816Z,9.90
